Terminal Aerodrome Forecast
Issued by NWS

Current Version | Previous Version | Text Only | Print | Product List | Glossary Off
Versions: 1 2 3 4 5 6 7 8 9 10 11 12 13 14 15 16 17 18 19 20 21 22 23 24 25 26 27 28 29 30 31 32

000
FTUS44 KOHX 030500 AAA
TAFCKV
TAF AMD
KCKV 030550Z 0306/0406 00000KT 6SM BR SCT006 BKN100
      TEMPO 0306/0309 4SM BR BKN006
     FM030900 00000KT 4SM BR SCT003 BKN015
      TEMPO 0309/0313 1SM BR OVC003
     FM031400 10003KT P6SM SCT250=

USA.gov is the U.S. government's official web portal to all federal, state and local government web resources and services.